sensor_id;sensor_type;location;lat;lon;timestamp;pressure;altitude;pressure_sealevel;temperature;humidity
49627;BME280;35527;54.616;39.786;2023-06-10T00:01:44;100075.41;;;14.01;100.00
49627;BME280;35527;54.616;39.786;2023-06-10T00:04:52;100084.34;;;13.95;100.00
49627;BME280;35527;54.616;39.786;2023-06-10T00:08:00;100067.53;;;13.85;100.00
49627;BME280;35527;54.616;39.786;2023-06-10T00:11:10;100092.78;;;14.01;100.00
49627;BME280;35527;54.616;39.786;2023-06-10T00:14:15;100086.75;;;14.00;100.00
49627;BME280;35527;54.616;39.786;2023-06-10T00:17:19;100087.78;;;13.96;100.00
49627;BME280;35527;54.616;39.786;2023-06-10T00:20:23;100097.31;;;13.97;100.00
49627;BME280;35527;54.616;39.786;2023-06-10T00:23:26;100093.38;;;13.88;100.00
49627;BME280;35527;54.616;39.786;2023-06-10T00:26:31;100092.75;;;13.83;100.00
49627;BME280;35527;54.616;39.786;2023-06-10T00:29:34;100085.56;;;13.71;100.00
49627;BME280;35527;54.616;39.786;2023-06-10T00:32:40;100110.13;;;13.83;100.00
49627;BME280;35527;54.616;39.786;2023-06-10T00:35:43;100104.22;;;13.79;100.00
49627;BME280;35527;54.616;39.786;2023-06-10T00:38:48;100102.88;;;13.70;100.00
49627;BME280;35527;54.616;39.786;2023-06-10T00:41:52;100114.31;;;13.68;100.00
49627;BME280;35527;54.616;39.786;2023-06-10T00:44:58;100102.44;;;13.62;100.00
49627;BME280;35527;54.616;39.786;2023-06-10T00:48:05;100105.19;;;13.59;100.00
49627;BME280;35527;54.616;39.786;2023-06-10T00:51:12;100116.03;;;13.67;100.00
49627;BME280;35527;54.616;39.786;2023-06-10T00:54:17;100112.97;;;13.59;100.00
49627;BME280;35527;54.616;39.786;2023-06-10T00:57:24;100131.66;;;13.67;100.00
49627;BME280;35527;54.616;39.786;2023-06-10T01:00:31;100139.53;;;13.66;100.00
49627;BME280;35527;54.616;39.786;2023-06-10T01:03:39;100122.22;;;13.65;100.00
49627;BME280;35527;54.616;39.786;2023-06-10T01:06:56;100126.00;;;13.59;100.00
49627;BME280;35527;54.616;39.786;2023-06-10T01:10:32;100129.19;;;13.64;97.67
49627;BME280;35527;54.616;39.786;2023-06-10T01:13:36;100134.34;;;13.66;96.59
49627;BME280;35527;54.616;39.786;2023-06-10T01:16:44;100126.44;;;13.67;96.94
49627;BME280;35527;54.616;39.786;2023-06-10T01:19:55;100142.28;;;13.63;96.07
49627;BME280;35527;54.616;39.786;2023-06-10T01:23:03;100140.81;;;13.57;95.15
49627;BME280;35527;54.616;39.786;2023-06-10T01:26:09;100141.78;;;13.55;93.81
49627;BME280;35527;54.616;39.786;2023-06-10T01:29:18;100148.03;;;13.50;92.70
49627;BME280;35527;54.616;39.786;2023-06-10T01:32:37;100171.56;;;13.47;92.26
49627;BME280;35527;54.616;39.786;2023-06-10T01:35:44;100155.69;;;13.35;92.25
49627;BME280;35527;54.616;39.786;2023-06-10T01:38:53;100152.81;;;13.41;93.71
49627;BME280;35527;54.616;39.786;2023-06-10T01:41:57;100177.69;;;13.46;93.29
49627;BME280;35527;54.616;39.786;2023-06-10T01:45:00;100176.06;;;13.44;94.39
49627;BME280;35527;54.616;39.786;2023-06-10T01:48:06;100172.78;;;13.40;95.13
49627;BME280;35527;54.616;39.786;2023-06-10T01:51:15;100182.06;;;13.46;95.97
49627;BME280;35527;54.616;39.786;2023-06-10T01:54:21;100178.53;;;13.47;95.74
49627;BME280;35527;54.616;39.786;2023-06-10T01:57:24;100186.47;;;13.44;93.64
49627;BME280;35527;54.616;39.786;2023-06-10T02:00:28;100168.69;;;13.35;92.86
49627;BME280;35527;54.616;39.786;2023-06-10T02:03:32;100185.69;;;13.42;92.86
49627;BME280;35527;54.616;39.786;2023-06-10T02:06:36;100179.38;;;13.28;91.53
49627;BME280;35527;54.616;39.786;2023-06-10T02:09:41;100196.44;;;13.34;92.82
49627;BME280;35527;54.616;39.786;2023-06-10T02:12:45;100195.03;;;13.27;91.90
49627;BME280;35527;54.616;39.786;2023-06-10T02:15:52;100179.16;;;13.13;89.04
49627;BME280;35527;54.616;39.786;2023-06-10T02:19:04;100198.53;;;13.26;88.58
49627;BME280;35527;54.616;39.786;2023-06-10T02:22:10;100200.41;;;13.22;82.94
49627;BME280;35527;54.616;39.786;2023-06-10T02:25:13;100196.06;;;13.23;82.41
49627;BME280;35527;54.616;39.786;2023-06-10T02:28:16;100211.41;;;13.29;79.48
49627;BME280;35527;54.616;39.786;2023-06-10T02:31:20;100205.09;;;13.35;78.49
49627;BME280;35527;54.616;39.786;2023-06-10T02:34:24;100172.72;;;13.21;77.31
49627;BME280;35527;54.616;39.786;2023-06-10T02:37:29;100191.81;;;13.41;75.54
49627;BME280;35527;54.616;39.786;2023-06-10T02:40:34;100196.31;;;13.56;71.29
49627;BME280;35527;54.616;39.786;2023-06-10T02:43:38;100195.47;;;13.37;69.51
49627;BME280;35527;54.616;39.786;2023-06-10T02:46:42;100189.53;;;13.33;68.15
49627;BME280;35527;54.616;39.786;2023-06-10T02:49:46;100193.78;;;13.36;67.39
49627;BME280;35527;54.616;39.786;2023-06-10T02:52:49;100200.03;;;13.32;67.57
49627;BME280;35527;54.616;39.786;2023-06-10T02:55:54;100205.88;;;13.37;67.55
49627;BME280;35527;54.616;39.786;2023-06-10T02:58:57;100201.13;;;13.26;66.92
49627;BME280;35527;54.616;39.786;2023-06-10T03:02:03;100202.50;;;13.35;67.11
49627;BME280;35527;54.616;39.786;2023-06-10T03:05:14;100196.31;;;13.37;66.35
49627;BME280;35527;54.616;39.786;2023-06-10T03:08:22;100213.41;;;13.62;66.48
49627;BME280;35527;54.616;39.786;2023-06-10T03:11:25;100214.63;;;13.73;65.76
49627;BME280;35527;54.616;39.786;2023-06-10T03:14:31;100193.81;;;13.73;65.57
49627;BME280;35527;54.616;39.786;2023-06-10T03:17:36;100208.72;;;13.89;66.20
49627;BME280;35527;54.616;39.786;2023-06-10T03:20:41;100223.97;;;13.96;65.67
49627;BME280;35527;54.616;39.786;2023-06-10T03:23:47;100212.19;;;14.07;65.83
49627;BME280;35527;54.616;39.786;2023-06-10T03:26:50;100220.22;;;14.38;64.24
49627;BME280;35527;54.616;39.786;2023-06-10T03:29:53;100207.81;;;14.62;64.09
49627;BME280;35527;54.616;39.786;2023-06-10T03:32:57;100219.09;;;14.44;62.39
49627;BME280;35527;54.616;39.786;2023-06-10T03:36:03;100225.84;;;14.31;63.70
49627;BME280;35527;54.616;39.786;2023-06-10T03:39:06;100243.53;;;14.41;62.89
49627;BME280;35527;54.616;39.786;2023-06-10T03:42:11;100235.75;;;14.59;62.20
49627;BME280;35527;54.616;39.786;2023-06-10T03:45:19;100208.72;;;14.61;60.68
49627;BME280;35527;54.616;39.786;2023-06-10T03:48:22;100252.19;;;15.13;61.14
49627;BME280;35527;54.616;39.786;2023-06-10T03:51:27;100259.56;;;15.22;59.17
49627;BME280;35527;54.616;39.786;2023-06-10T03:54:31;100253.88;;;15.14;59.92
49627;BME280;35527;54.616;39.786;2023-06-10T03:57:34;100257.47;;;15.29;59.38
49627;BME280;35527;54.616;39.786;2023-06-10T04:00:38;100243.78;;;15.08;57.81
49627;BME280;35527;54.616;39.786;2023-06-10T04:03:44;100264.75;;;15.05;57.72
49627;BME280;35527;54.616;39.786;2023-06-10T04:06:51;100256.72;;;14.92;58.77
49627;BME280;35527;54.616;39.786;2023-06-10T04:09:57;100242.91;;;14.90;59.10
49627;BME280;35527;54.616;39.786;2023-06-10T04:13:00;100253.59;;;16.34;54.91
49627;BME280;35527;54.616;39.786;2023-06-10T04:16:09;100261.88;;;16.88;52.88
49627;BME280;35527;54.616;39.786;2023-06-10T04:19:13;100248.78;;;17.62;50.37
49627;BME280;35527;54.616;39.786;2023-06-10T04:22:15;100258.13;;;17.66;50.08
49627;BME280;35527;54.616;39.786;2023-06-10T04:25:19;100269.50;;;17.22;50.15
49627;BME280;35527;54.616;39.786;2023-06-10T04:28:28;100272.09;;;16.61;52.41
49627;BME280;35527;54.616;39.786;2023-06-10T04:31:34;100259.47;;;16.22;53.74
49627;BME280;35527;54.616;39.786;2023-06-10T04:34:37;100289.81;;;16.09;54.55
49627;BME280;35527;54.616;39.786;2023-06-10T04:37:43;100284.78;;;16.06;54.29
49627;BME280;35527;54.616;39.786;2023-06-10T04:40:47;100258.97;;;15.84;53.97
49627;BME280;35527;54.616;39.786;2023-06-10T04:43:52;100285.88;;;16.17;53.88
49627;BME280;35527;54.616;39.786;2023-06-10T04:46:56;100269.25;;;16.96;52.79
49627;BME280;35527;54.616;39.786;2023-06-10T04:50:02;100280.00;;;17.65;50.62
49627;BME280;35527;54.616;39.786;2023-06-10T04:53:08;100267.47;;;18.67;46.87
49627;BME280;35527;54.616;39.786;2023-06-10T04:56:14;100276.06;;;21.19;42.66
49627;BME280;35527;54.616;39.786;2023-06-10T04:59:20;100261.00;;;23.28;37.45
49627;BME280;35527;54.616;39.786;2023-06-10T05:02:25;100268.22;;;24.18;35.70
49627;BME280;35527;54.616;39.786;2023-06-10T05:05:32;100264.47;;;23.50;35.10
49627;BME280;35527;54.616;39.786;2023-06-10T05:08:36;100276.69;;;20.87;38.99
49627;BME280;35527;54.616;39.786;2023-06-10T05:11:39;100261.59;;;20.17;40.43
49627;BME280;35527;54.616;39.786;2023-06-10T05:14:43;100277.47;;;19.66;42.42
49627;BME280;35527;54.616;39.786;2023-06-10T05:17:47;100263.53;;;20.15;41.58
49627;BME280;35527;54.616;39.786;2023-06-10T05:20:52;100274.78;;;20.41;41.33
49627;BME280;35527;54.616;39.786;2023-06-10T05:23:56;100280.97;;;20.16;41.72
49627;BME280;35527;54.616;39.786;2023-06-10T05:26:59;100289.06;;;20.13;42.92
49627;BME280;35527;54.616;39.786;2023-06-10T05:30:03;100283.53;;;20.65;41.66
49627;BME280;35527;54.616;39.786;2023-06-10T05:33:07;100293.53;;;19.87;40.83
49627;BME280;35527;54.616;39.786;2023-06-10T05:36:12;100255.59;;;19.01;42.89
49627;BME280;35527;54.616;39.786;2023-06-10T05:39:17;100293.03;;;19.69;42.68
49627;BME280;35527;54.616;39.786;2023-06-10T05:42:21;100294.03;;;20.41;40.96
49627;BME280;35527;54.616;39.786;2023-06-10T05:45:24;100294.22;;;21.68;39.05
49627;BME280;35527;54.616;39.786;2023-06-10T05:48:27;100299.16;;;21.26;39.17
49627;BME280;35527;54.616;39.786;2023-06-10T05:51:31;100290.22;;;22.41;36.64
49627;BME280;35527;54.616;39.786;2023-06-10T05:54:34;100304.66;;;22.90;35.80
49627;BME280;35527;54.616;39.786;2023-06-10T05:57:43;100325.25;;;21.98;36.25
49627;BME280;35527;54.616;39.786;2023-06-10T06:00:46;100266.59;;;20.33;38.94
49627;BME280;35527;54.616;39.786;2023-06-10T06:03:54;100299.09;;;19.95;40.98
49627;BME280;35527;54.616;39.786;2023-06-10T06:06:58;100297.41;;;20.67;39.68
49627;BME280;35527;54.616;39.786;2023-06-10T06:10:01;100306.78;;;21.53;38.09
49627;BME280;35527;54.616;39.786;2023-06-10T06:13:05;100293.09;;;21.37;36.71
49627;BME280;35527;54.616;39.786;2023-06-10T06:16:08;100312.53;;;21.70;35.84
49627;BME280;35527;54.616;39.786;2023-06-10T06:19:12;100314.25;;;20.65;37.26
49627;BME280;35527;54.616;39.786;2023-06-10T06:22:15;100330.69;;;20.19;37.16
49627;BME280;35527;54.616;39.786;2023-06-10T06:25:23;100321.53;;;20.61;37.18
49627;BME280;35527;54.616;39.786;2023-06-10T06:28:26;100323.78;;;21.72;34.72
49627;BME280;35527;54.616;39.786;2023-06-10T06:31:31;100320.00;;;22.97;32.34
49627;BME280;35527;54.616;39.786;2023-06-10T06:34:36;100284.00;;;23.37;31.83
49627;BME280;35527;54.616;39.786;2023-06-10T06:37:38;100305.34;;;24.07;30.69
49627;BME280;35527;54.616;39.786;2023-06-10T06:40:53;100309.00;;;24.16;31.69
49627;BME280;35527;54.616;39.786;2023-06-10T06:43:56;100306.44;;;24.74;31.08
49627;BME280;35527;54.616;39.786;2023-06-10T06:47:06;100318.53;;;25.45;28.98
49627;BME280;35527;54.616;39.786;2023-06-10T06:50:09;100323.75;;;24.78;26.83
49627;BME280;35527;54.616;39.786;2023-06-10T06:53:12;100331.34;;;25.49;25.69
49627;BME280;35527;54.616;39.786;2023-06-10T06:56:16;100323.69;;;26.21;25.15
49627;BME280;35527;54.616;39.786;2023-06-10T06:59:19;100328.25;;;26.56;25.42
49627;BME280;35527;54.616;39.786;2023-06-10T07:02:25;100329.19;;;27.45;24.00
49627;BME280;35527;54.616;39.786;2023-06-10T07:05:28;100332.13;;;28.44;22.69
49627;BME280;35527;54.616;39.786;2023-06-10T07:08:32;100334.88;;;29.26;22.03
49627;BME280;35527;54.616;39.786;2023-06-10T07:11:35;100335.41;;;29.05;22.74
49627;BME280;35527;54.616;39.786;2023-06-10T07:14:39;100337.91;;;29.07;22.91
49627;BME280;35527;54.616;39.786;2023-06-10T07:17:44;100339.25;;;29.19;22.24
49627;BME280;35527;54.616;39.786;2023-06-10T07:20:50;100339.22;;;28.94;22.11
49627;BME280;35527;54.616;39.786;2023-06-10T07:23:58;100326.75;;;28.28;23.15
49627;BME280;35527;54.616;39.786;2023-06-10T07:27:02;100356.63;;;28.48;23.19
49627;BME280;35527;54.616;39.786;2023-06-10T07:30:05;100327.88;;;28.17;22.54
49627;BME280;35527;54.616;39.786;2023-06-10T07:33:12;100329.03;;;28.15;21.96
49627;BME280;35527;54.616;39.786;2023-06-10T07:36:18;100328.41;;;29.04;21.49
49627;BME280;35527;54.616;39.786;2023-06-10T07:39:21;100323.38;;;28.93;22.05
49627;BME280;35527;54.616;39.786;2023-06-10T07:42:24;100327.53;;;28.71;22.30
49627;BME280;35527;54.616;39.786;2023-06-10T07:45:27;100347.66;;;27.54;23.73
49627;BME280;35527;54.616;39.786;2023-06-10T07:48:30;100324.47;;;27.65;23.59
49627;BME280;35527;54.616;39.786;2023-06-10T07:51:32;100328.78;;;27.66;23.12
49627;BME280;35527;54.616;39.786;2023-06-10T07:54:36;100349.88;;;27.85;23.62
49627;BME280;35527;54.616;39.786;2023-06-10T07:57:40;100354.56;;;27.91;23.17
49627;BME280;35527;54.616;39.786;2023-06-10T08:00:46;100353.59;;;28.00;23.14
49627;BME280;35527;54.616;39.786;2023-06-10T08:03:49;100348.59;;;27.71;23.37
49627;BME280;35527;54.616;39.786;2023-06-10T08:06:53;100357.25;;;26.67;23.81
49627;BME280;35527;54.616;39.786;2023-06-10T08:09:56;100351.16;;;26.02;24.43
49627;BME280;35527;54.616;39.786;2023-06-10T08:12:59;100368.84;;;26.39;24.25
49627;BME280;35527;54.616;39.786;2023-06-10T08:16:03;100341.81;;;26.25;23.70
49627;BME280;35527;54.616;39.786;2023-06-10T08:19:07;100367.38;;;26.26;23.45
49627;BME280;35527;54.616;39.786;2023-06-10T08:22:11;100359.28;;;26.56;23.99
49627;BME280;35527;54.616;39.786;2023-06-10T08:25:15;100356.41;;;26.85;23.06
49627;BME280;35527;54.616;39.786;2023-06-10T08:28:18;100361.41;;;26.70;23.30
49627;BME280;35527;54.616;39.786;2023-06-10T08:31:21;100352.28;;;26.55;24.33
49627;BME280;35527;54.616;39.786;2023-06-10T08:34:25;100365.25;;;25.55;24.55
49627;BME280;35527;54.616;39.786;2023-06-10T08:37:27;100370.88;;;25.33;25.61
49627;BME280;35527;54.616;39.786;2023-06-10T08:40:30;100363.75;;;25.33;26.12
49627;BME280;35527;54.616;39.786;2023-06-10T08:43:44;100382.59;;;24.41;26.46
49627;BME280;35527;54.616;39.786;2023-06-10T08:46:48;100360.75;;;23.78;26.91
49627;BME280;35527;54.616;39.786;2023-06-10T08:49:55;100368.84;;;23.86;26.82
49627;BME280;35527;54.616;39.786;2023-06-10T08:53:01;100354.91;;;24.45;26.81
49627;BME280;35527;54.616;39.786;2023-06-10T08:56:07;100352.28;;;25.43;26.08
49627;BME280;35527;54.616;39.786;2023-06-10T08:59:36;100360.53;;;24.91;26.22
49627;BME280;35527;54.616;39.786;2023-06-10T09:02:42;100355.81;;;25.04;26.17
49627;BME280;35527;54.616;39.786;2023-06-10T09:05:48;100362.34;;;25.10;26.00
49627;BME280;35527;54.616;39.786;2023-06-10T09:08:51;100366.84;;;25.86;24.53
49627;BME280;35527;54.616;39.786;2023-06-10T09:11:56;100368.50;;;25.96;24.81
49627;BME280;35527;54.616;39.786;2023-06-10T09:14:59;100375.69;;;26.04;23.67
49627;BME280;35527;54.616;39.786;2023-06-10T09:18:06;100356.38;;;25.27;24.05
49627;BME280;35527;54.616;39.786;2023-06-10T09:21:10;100365.00;;;24.40;25.04
49627;BME280;35527;54.616;39.786;2023-06-10T09:24:16;100369.44;;;24.70;25.39
49627;BME280;35527;54.616;39.786;2023-06-10T09:27:20;100375.53;;;25.68;23.94
49627;BME280;35527;54.616;39.786;2023-06-10T09:30:31;100367.38;;;25.13;23.96
49627;BME280;35527;54.616;39.786;2023-06-10T09:33:39;100370.13;;;24.32;25.13
49627;BME280;35527;54.616;39.786;2023-06-10T09:36:43;100371.38;;;23.88;26.61
49627;BME280;35527;54.616;39.786;2023-06-10T09:40:03;100369.22;;;24.02;26.87
49627;BME280;35527;54.616;39.786;2023-06-10T09:43:07;100372.06;;;23.69;27.29
49627;BME280;35527;54.616;39.786;2023-06-10T09:46:18;100373.56;;;23.61;27.29
49627;BME280;35527;54.616;39.786;2023-06-10T09:49:23;100359.97;;;23.24;27.51
49627;BME280;35527;54.616;39.786;2023-06-10T09:52:27;100369.94;;;23.21;27.61
49627;BME280;35527;54.616;39.786;2023-06-10T09:55:33;100372.44;;;23.01;28.43
49627;BME280;35527;54.616;39.786;2023-06-10T09:58:39;100361.91;;;23.22;28.52
49627;BME280;35527;54.616;39.786;2023-06-10T10:01:54;100365.69;;;23.08;29.50
49627;BME280;35527;54.616;39.786;2023-06-10T10:05:03;100347.56;;;22.60;29.40
49627;BME280;35527;54.616;39.786;2023-06-10T10:08:09;100377.31;;;22.62;30.45
49627;BME280;35527;54.616;39.786;2023-06-10T10:11:18;100372.78;;;22.53;31.00
49627;BME280;35527;54.616;39.786;2023-06-10T10:14:23;100351.47;;;22.45;30.34
49627;BME280;35527;54.616;39.786;2023-06-10T10:17:27;100349.69;;;22.23;30.45
49627;BME280;35527;54.616;39.786;2023-06-10T10:20:45;100360.69;;;22.05;30.50
49627;BME280;35527;54.616;39.786;2023-06-10T10:24:14;100361.53;;;22.29;30.35
49627;BME280;35527;54.616;39.786;2023-06-10T10:27:31;100339.03;;;22.24;30.20
49627;BME280;35527;54.616;39.786;2023-06-10T10:30:40;100365.34;;;22.58;29.97
49627;BME280;35527;54.616;39.786;2023-06-10T10:33:59;100333.63;;;22.26;30.25
49627;BME280;35527;54.616;39.786;2023-06-10T10:37:03;100354.84;;;22.02;30.93
49627;BME280;35527;54.616;39.786;2023-06-10T10:40:07;100347.13;;;21.65;30.57
49627;BME280;35527;54.616;39.786;2023-06-10T10:43:10;100351.00;;;21.95;31.54
49627;BME280;35527;54.616;39.786;2023-06-10T10:46:15;100350.16;;;22.28;30.26
49627;BME280;35527;54.616;39.786;2023-06-10T10:49:22;100351.97;;;22.39;30.80
49627;BME280;35527;54.616;39.786;2023-06-10T10:52:25;100356.03;;;22.32;30.88
49627;BME280;35527;54.616;39.786;2023-06-10T10:55:32;100351.94;;;22.16;31.49
49627;BME280;35527;54.616;39.786;2023-06-10T10:58:36;100369.44;;;22.40;30.88
49627;BME280;35527;54.616;39.786;2023-06-10T11:01:41;100365.72;;;22.86;29.94
49627;BME280;35527;54.616;39.786;2023-06-10T11:04:50;100373.75;;;22.52;30.24
49627;BME280;35527;54.616;39.786;2023-06-10T11:07:54;100370.16;;;22.08;31.21
49627;BME280;35527;54.616;39.786;2023-06-10T11:11:00;100374.97;;;21.10;32.82
49627;BME280;35527;54.616;39.786;2023-06-10T11:14:31;100368.31;;;20.93;32.53
49627;BME280;35527;54.616;39.786;2023-06-10T11:17:37;100377.69;;;21.32;32.37
49627;BME280;35527;54.616;39.786;2023-06-10T11:23:52;100361.38;;;21.63;32.25
49627;BME280;35527;54.616;39.786;2023-06-10T11:27:36;100370.34;;;21.60;31.63
49627;BME280;35527;54.616;39.786;2023-06-10T11:30:42;100366.59;;;21.40;32.49
49627;BME280;35527;54.616;39.786;2023-06-10T11:33:46;100370.72;;;21.55;32.42
49627;BME280;35527;54.616;39.786;2023-06-10T11:36:51;100361.09;;;21.43;30.51
49627;BME280;35527;54.616;39.786;2023-06-10T11:39:56;100377.69;;;21.68;31.53
49627;BME280;35527;54.616;39.786;2023-06-10T11:42:59;100370.88;;;21.76;31.52
49627;BME280;35527;54.616;39.786;2023-06-10T11:46:02;100366.69;;;21.85;31.28
49627;BME280;35527;54.616;39.786;2023-06-10T11:49:09;100372.16;;;21.59;30.71
49627;BME280;35527;54.616;39.786;2023-06-10T11:52:14;100371.66;;;21.54;30.38
49627;BME280;35527;54.616;39.786;2023-06-10T11:55:17;100380.75;;;21.15;30.42
49627;BME280;35527;54.616;39.786;2023-06-10T11:58:21;100383.06;;;20.96;30.55
49627;BME280;35527;54.616;39.786;2023-06-10T12:01:26;100357.69;;;20.70;31.34
49627;BME280;35527;54.616;39.786;2023-06-10T12:04:35;100397.66;;;20.76;32.10
49627;BME280;35527;54.616;39.786;2023-06-10T12:07:40;100385.91;;;20.92;30.93
49627;BME280;35527;54.616;39.786;2023-06-10T12:10:43;100394.91;;;21.25;30.03
49627;BME280;35527;54.616;39.786;2023-06-10T12:13:48;100382.66;;;21.13;29.78
49627;BME280;35527;54.616;39.786;2023-06-10T12:16:52;100392.13;;;21.15;29.76
49627;BME280;35527;54.616;39.786;2023-06-10T12:19:55;100379.47;;;21.21;29.85
49627;BME280;35527;54.616;39.786;2023-06-10T12:22:59;100384.38;;;20.77;30.71
49627;BME280;35527;54.616;39.786;2023-06-10T12:26:03;100377.19;;;20.42;30.03
49627;BME280;35527;54.616;39.786;2023-06-10T12:29:24;100360.94;;;20.24;31.85
49627;BME280;35527;54.616;39.786;2023-06-10T12:32:43;100371.00;;;20.80;30.61
49627;BME280;35527;54.616;39.786;2023-06-10T12:35:48;100364.59;;;20.60;30.57
49627;BME280;35527;54.616;39.786;2023-06-10T12:38:52;100390.16;;;20.82;30.53
49627;BME280;35527;54.616;39.786;2023-06-10T12:41:56;100384.28;;;20.79;30.08
49627;BME280;35527;54.616;39.786;2023-06-10T12:45:04;100373.63;;;20.56;31.07
49627;BME280;35527;54.616;39.786;2023-06-10T12:48:22;100385.00;;;20.31;31.38
49627;BME280;35527;54.616;39.786;2023-06-10T12:51:28;100390.03;;;20.47;31.72
49627;BME280;35527;54.616;39.786;2023-06-10T12:54:30;100390.50;;;20.78;30.55
49627;BME280;35527;54.616;39.786;2023-06-10T12:57:35;100379.00;;;20.55;31.17
49627;BME280;35527;54.616;39.786;2023-06-10T13:00:38;100369.31;;;20.55;32.21
49627;BME280;35527;54.616;39.786;2023-06-10T13:03:42;100391.41;;;20.40;31.08
49627;BME280;35527;54.616;39.786;2023-06-10T13:06:48;100393.03;;;20.30;32.12
49627;BME280;35527;54.616;39.786;2023-06-10T13:09:52;100384.47;;;20.39;31.05
49627;BME280;35527;54.616;39.786;2023-06-10T13:12:57;100369.50;;;19.90;32.51
49627;BME280;35527;54.616;39.786;2023-06-10T13:16:02;100372.47;;;19.72;31.84
49627;BME280;35527;54.616;39.786;2023-06-10T13:19:05;100366.47;;;19.70;31.71
49627;BME280;35527;54.616;39.786;2023-06-10T13:22:10;100376.44;;;20.03;31.52
49627;BME280;35527;54.616;39.786;2023-06-10T13:25:12;100378.22;;;20.16;32.75
49627;BME280;35527;54.616;39.786;2023-06-10T13:28:16;100387.50;;;19.83;31.54
49627;BME280;35527;54.616;39.786;2023-06-10T13:31:19;100376.81;;;19.46;32.26
49627;BME280;35527;54.616;39.786;2023-06-10T13:34:24;100380.16;;;19.35;32.70
49627;BME280;35527;54.616;39.786;2023-06-10T13:37:27;100379.69;;;19.16;32.86
49627;BME280;35527;54.616;39.786;2023-06-10T13:40:33;100392.13;;;19.00;33.79
49627;BME280;35527;54.616;39.786;2023-06-10T13:43:38;100374.34;;;18.90;33.29
49627;BME280;35527;54.616;39.786;2023-06-10T13:46:42;100391.91;;;19.03;32.71
49627;BME280;35527;54.616;39.786;2023-06-10T13:49:50;100380.00;;;19.11;33.48
49627;BME280;35527;54.616;39.786;2023-06-10T13:52:55;100393.06;;;19.39;32.51
49627;BME280;35527;54.616;39.786;2023-06-10T13:55:58;100377.22;;;19.40;33.48
49627;BME280;35527;54.616;39.786;2023-06-10T13:59:01;100395.78;;;19.24;32.54
49627;BME280;35527;54.616;39.786;2023-06-10T14:02:06;100404.97;;;19.17;33.16
49627;BME280;35527;54.616;39.786;2023-06-10T14:05:09;100402.28;;;19.31;32.43
49627;BME280;35527;54.616;39.786;2023-06-10T14:08:12;100402.19;;;19.33;32.14
49627;BME280;35527;54.616;39.786;2023-06-10T14:11:15;100391.00;;;19.17;32.77
49627;BME280;35527;54.616;39.786;2023-06-10T14:14:19;100389.13;;;19.19;31.88
49627;BME280;35527;54.616;39.786;2023-06-10T14:17:23;100389.97;;;19.19;32.03
49627;BME280;35527;54.616;39.786;2023-06-10T14:20:26;100392.25;;;19.11;31.43
49627;BME280;35527;54.616;39.786;2023-06-10T14:23:33;100383.81;;;18.93;31.83
49627;BME280;35527;54.616;39.786;2023-06-10T14:26:40;100386.28;;;19.09;31.88
49627;BME280;35527;54.616;39.786;2023-06-10T14:29:46;100367.44;;;18.89;32.27
49627;BME280;35527;54.616;39.786;2023-06-10T14:32:52;100382.81;;;18.81;32.13
49627;BME280;35527;54.616;39.786;2023-06-10T14:35:54;100392.44;;;18.95;32.73
49627;BME280;35527;54.616;39.786;2023-06-10T14:38:59;100384.66;;;18.94;32.06
49627;BME280;35527;54.616;39.786;2023-06-10T14:42:06;100406.94;;;19.01;32.24
49627;BME280;35527;54.616;39.786;2023-06-10T14:45:09;100410.09;;;18.79;32.34
49627;BME280;35527;54.616;39.786;2023-06-10T14:48:12;100419.38;;;18.56;32.44
49627;BME280;35527;54.616;39.786;2023-06-10T14:51:15;100409.66;;;18.43;33.38
49627;BME280;35527;54.616;39.786;2023-06-10T14:54:18;100409.09;;;18.38;33.03
49627;BME280;35527;54.616;39.786;2023-06-10T14:57:22;100424.56;;;18.43;32.94
49627;BME280;35527;54.616;39.786;2023-06-10T15:00:24;100412.19;;;18.16;32.86
49627;BME280;35527;54.616;39.786;2023-06-10T15:03:29;100408.72;;;18.01;33.70
49627;BME280;35527;54.616;39.786;2023-06-10T15:06:32;100407.69;;;17.90;33.82
49627;BME280;35527;54.616;39.786;2023-06-10T15:09:35;100381.72;;;17.71;33.77
49627;BME280;35527;54.616;39.786;2023-06-10T15:12:39;100410.69;;;17.68;34.09
49627;BME280;35527;54.616;39.786;2023-06-10T15:15:44;100423.25;;;17.63;34.04
49627;BME280;35527;54.616;39.786;2023-06-10T15:18:47;100436.63;;;17.42;33.08
49627;BME280;35527;54.616;39.786;2023-06-10T15:21:50;100421.03;;;17.25;34.16
49627;BME280;35527;54.616;39.786;2023-06-10T15:24:53;100437.81;;;17.37;34.49
49627;BME280;35527;54.616;39.786;2023-06-10T15:28:00;100433.22;;;17.26;34.84
49627;BME280;35527;54.616;39.786;2023-06-10T15:31:03;100415.00;;;17.08;34.26
49627;BME280;35527;54.616;39.786;2023-06-10T15:34:07;100435.94;;;17.08;34.60
49627;BME280;35527;54.616;39.786;2023-06-10T15:37:15;100421.91;;;16.94;34.88
49627;BME280;35527;54.616;39.786;2023-06-10T15:40:23;100431.66;;;16.92;34.76
49627;BME280;35527;54.616;39.786;2023-06-10T15:43:26;100448.94;;;16.94;34.84
49627;BME280;35527;54.616;39.786;2023-06-10T15:46:31;100462.25;;;16.89;35.11
49627;BME280;35527;54.616;39.786;2023-06-10T15:49:34;100435.97;;;16.59;35.78
49627;BME280;35527;54.616;39.786;2023-06-10T15:52:36;100447.69;;;16.52;34.98
49627;BME280;35527;54.616;39.786;2023-06-10T15:55:40;100483.34;;;16.53;35.69
49627;BME280;35527;54.616;39.786;2023-06-10T15:58:44;100485.00;;;16.38;36.00
49627;BME280;35527;54.616;39.786;2023-06-10T16:01:48;100479.88;;;16.19;35.70